Time;durP1;ratioP1;P1;durP2;ratioP2;P2;SDS_P1;SDS_P2;PMS_P1;PMS_P2;Temp;Humidity;BMP_temperature;BMP_pressure;BME280_temperature;BME280_humidity;BME280_pressure;Samples;Min_cycle;Max_cycle;Signal;HPM_P1;HPM_P2
2021/10/05 00:00:09;;;;;;;10.80;2.23;;;;;;;;;;5071620;28;20191;-76
2021/10/05 00:02:36;;;;;;;8.30;1.80;;;;;;;;;;5070347;28;20743;-76
2021/10/05 00:05:03;;;;;;;11.00;2.40;;;;;;;;;;5071608;28;20302;-75
2021/10/05 00:07:31;;;;;;;11.50;2.47;;;;;;;;;;5070969;28;20199;-76
2021/10/05 00:09:58;;;;;;;12.50;1.97;;;;;;;;;;5071808;28;20229;-75
2021/10/05 00:12:25;;;;;;;9.47;1.70;;;;;;;;;;5070650;28;20299;-76
2021/10/05 00:14:53;;;;;;;9.17;2.40;;;;;;;;;;5071385;28;20230;-76
2021/10/05 00:17:21;;;;;;;12.90;2.27;;;;;;;;;;5080567;28;20222;-76
2021/10/05 00:19:49;;;;;;;12.67;2.87;;;;;;;;;;5077695;28;20294;-76
2021/10/05 00:22:16;;;;;;;9.63;1.87;;;;;;;;;;5071733;28;20274;-76
2021/10/05 00:24:44;;;;;;;13.00;1.90;;;;;;;;;;5083622;28;20660;-76
2021/10/05 00:27:11;;;;;;;12.80;1.90;;;;;;;;;;5085034;28;20212;-76
2021/10/05 00:29:38;;;;;;;9.77;1.93;;;;;;;;;;5080755;28;20318;-76
2021/10/05 00:32:07;;;;;;;10.63;2.00;;;;;;;;;;5071139;28;20293;-76
2021/10/05 00:34:34;;;;;;;10.03;2.43;;;;;;;;;;5070334;28;20282;-76
2021/10/05 00:37:02;;;;;;;12.93;2.23;;;;;;;;;;5071259;28;20325;-76
2021/10/05 00:39:29;;;;;;;8.00;1.80;;;;;;;;;;5069992;28;20213;-76
2021/10/05 00:41:56;;;;;;;12.50;2.00;;;;;;;;;;5070889;28;20294;-76
2021/10/05 00:44:30;;;;;;;9.53;1.70;;;;;;;;;;5070683;28;20294;-76
2021/10/05 00:47:00;;;;;;;11.10;2.27;;;;;;;;;;5070631;28;20290;-76
2021/10/05 00:49:29;;;;;;;9.13;1.80;;;;;;;;;;5070952;28;20196;-76
2021/10/05 00:51:59;;;;;;;13.53;2.10;;;;;;;;;;5070991;28;20199;-76
2021/10/05 00:54:26;;;;;;;14.23;2.10;;;;;;;;;;5070589;28;20244;-76
2021/10/05 00:56:53;;;;;;;11.57;2.30;;;;;;;;;;5069649;28;20200;-75
2021/10/05 00:59:21;;;;;;;11.03;1.53;;;;;;;;;;5070985;28;20202;-76
2021/10/05 01:01:48;;;;;;;10.43;2.20;;;;;;;;;;5070115;28;20307;-76
2021/10/05 01:04:15;;;;;;;9.30;1.90;;;;;;;;;;5070820;28;20227;-76
2021/10/05 01:06:48;;;;;;;7.83;1.50;;;;;;;;;;5074319;28;20201;-76
2021/10/05 01:09:15;;;;;;;8.87;1.93;;;;;;;;;;5074672;28;20287;-76
2021/10/05 01:11:43;;;;;;;11.23;1.97;;;;;;;;;;5073972;28;20211;-76
2021/10/05 01:14:10;;;;;;;9.90;1.80;;;;;;;;;;5073709;28;20282;-75
2021/10/05 01:16:38;;;;;;;10.60;2.10;;;;;;;;;;5072799;28;20289;-76
2021/10/05 01:19:05;;;;;;;11.93;2.33;;;;;;;;;;5074676;28;20298;-76
2021/10/05 01:21:34;;;;;;;14.27;2.57;;;;;;;;;;5073870;28;20282;-77
2021/10/05 01:24:09;;;;;;;10.90;1.73;;;;;;;;;;5074411;28;20688;-76
2021/10/05 01:26:36;;;;;;;9.83;1.80;;;;;;;;;;5090613;28;20205;-76
2021/10/05 01:29:05;;;;;;;12.07;2.50;;;;;;;;;;5074331;28;20294;-76
2021/10/05 01:31:32;;;;;;;9.80;1.63;;;;;;;;;;5073310;28;20222;-76
2021/10/05 01:33:59;;;;;;;8.40;1.60;;;;;;;;;;5085799;28;20203;-75
2021/10/05 01:36:27;;;;;;;7.97;1.70;;;;;;;;;;5074682;28;20321;-76
2021/10/05 01:38:55;;;;;;;13.23;2.03;;;;;;;;;;5073873;28;20294;-76
2021/10/05 01:41:23;;;;;;;11.30;2.17;;;;;;;;;;5084690;28;20202;-76
2021/10/05 01:43:50;;;;;;;8.63;1.47;;;;;;;;;;5074261;28;20297;-76
2021/10/05 01:46:17;;;;;;;6.30;1.30;;;;;;;;;;5073709;28;20241;-76
2021/10/05 01:48:45;;;;;;;8.20;1.97;;;;;;;;;;5073501;28;20207;-77
2021/10/05 01:51:13;;;;;;;9.90;2.07;;;;;;;;;;5073077;28;20317;-75
2021/10/05 01:53:41;;;;;;;6.93;1.70;;;;;;;;;;5073572;28;20278;-78
2021/10/05 01:56:10;;;;;;;9.77;2.00;;;;;;;;;;5073729;28;20237;-77
2021/10/05 01:58:37;;;;;;;8.63;1.80;;;;;;;;;;5073542;28;20290;-77
2021/10/05 02:01:04;;;;;;;8.77;1.87;;;;;;;;;;5072881;28;20275;-79
2021/10/05 02:03:31;;;;;;;9.13;1.70;;;;;;;;;;5072736;28;20689;-78
2021/10/05 02:05:59;;;;;;;11.17;1.60;;;;;;;;;;5082083;28;20241;-77
2021/10/05 02:08:26;;;;;;;6.47;1.40;;;;;;;;;;5085066;28;20285;-77
2021/10/05 02:10:53;;;;;;;5.10;1.83;;;;;;;;;;5081103;28;20312;-78
2021/10/05 02:13:22;;;;;;;5.67;1.30;;;;;;;;;;5093674;28;20230;-78
2021/10/05 02:15:49;;;;;;;7.20;1.40;;;;;;;;;;5086397;28;20282;-78
2021/10/05 02:18:16;;;;;;;7.23;1.90;;;;;;;;;;5073332;28;20265;-78
2021/10/05 02:20:43;;;;;;;11.53;1.90;;;;;;;;;;5076781;28;20191;-78
2021/10/05 02:23:10;;;;;;;6.00;1.57;;;;;;;;;;5073739;28;20285;-79
2021/10/05 02:25:37;;;;;;;6.80;1.77;;;;;;;;;;5080071;28;20291;-77
2021/10/05 02:28:05;;;;;;;9.33;1.87;;;;;;;;;;5092788;28;20634;-78
2021/10/05 02:30:34;;;;;;;9.53;2.03;;;;;;;;;;5081266;28;20218;-77
2021/10/05 02:33:01;;;;;;;7.77;1.53;;;;;;;;;;5084823;28;20208;-77
2021/10/05 02:35:28;;;;;;;3.93;1.10;;;;;;;;;;5093717;28;20289;-77
2021/10/05 02:37:55;;;;;;;6.93;1.33;;;;;;;;;;5080688;28;20234;-77
2021/10/05 02:40:23;;;;;;;6.70;1.20;;;;;;;;;;5073192;28;20275;-77
2021/10/05 02:42:50;;;;;;;5.20;1.27;;;;;;;;;;5073318;28;20277;-77
2021/10/05 02:45:17;;;;;;;4.07;0.97;;;;;;;;;;5072967;28;20282;-77
2021/10/05 02:47:46;;;;;;;4.63;1.10;;;;;;;;;;5073312;28;20290;-77
2021/10/05 02:50:13;;;;;;;4.70;1.10;;;;;;;;;;5079656;28;20290;-77
2021/10/05 02:52:40;;;;;;;4.30;0.80;;;;;;;;;;5087820;28;20285;-77
2021/10/05 02:55:08;;;;;;;7.43;1.40;;;;;;;;;;5074481;28;20201;-77
2021/10/05 02:57:35;;;;;;;4.60;1.17;;;;;;;;;;5085479;28;20209;-77
2021/10/05 03:00:02;;;;;;;2.90;1.10;;;;;;;;;;5075540;28;20659;-77
2021/10/05 03:02:29;;;;;;;5.87;1.13;;;;;;;;;;5085513;28;20276;-77
2021/10/05 03:04:58;;;;;;;2.80;1.00;;;;;;;;;;5081563;28;20674;-77
2021/10/05 03:07:25;;;;;;;3.93;1.07;;;;;;;;;;5072723;28;20290;-77
2021/10/05 03:09:52;;;;;;;4.80;0.97;;;;;;;;;;5082912;28;20290;-76
2021/10/05 03:12:19;;;;;;;3.33;0.90;;;;;;;;;;5079755;28;20250;-77
2021/10/05 03:14:46;;;;;;;4.00;1.40;;;;;;;;;;5076312;28;20230;-77
2021/10/05 03:17:14;;;;;;;4.27;1.20;;;;;;;;;;5092003;28;20294;-77
2021/10/05 03:19:41;;;;;;;4.63;1.20;;;;;;;;;;5081119;28;20237;-77
2021/10/05 03:22:10;;;;;;;3.73;0.93;;;;;;;;;;5084992;28;20701;-76
2021/10/05 03:24:37;;;;;;;4.63;1.30;;;;;;;;;;5092563;28;20641;-77
2021/10/05 03:27:06;;;;;;;5.07;0.97;;;;;;;;;;5077756;28;20294;-77
2021/10/05 03:29:33;;;;;;;4.90;1.10;;;;;;;;;;5088930;28;20202;-77
2021/10/05 03:32:00;;;;;;;4.23;1.13;;;;;;;;;;5092061;28;20246;-77
2021/10/05 03:34:28;;;;;;;3.73;0.90;;;;;;;;;;5075057;28;20281;-76
2021/10/05 03:36:55;;;;;;;5.03;1.13;;;;;;;;;;5072271;28;20321;-76
2021/10/05 03:39:23;;;;;;;5.27;0.97;;;;;;;;;;5077571;28;20290;-76
2021/10/05 03:41:51;;;;;;;5.03;1.00;;;;;;;;;;5087833;28;20377;-76
2021/10/05 03:44:18;;;;;;;3.90;1.00;;;;;;;;;;5083757;28;20875;-76
2021/10/05 03:46:45;;;;;;;4.70;1.20;;;;;;;;;;5085362;28;20636;-76
2021/10/05 03:49:12;;;;;;;7.50;1.40;;;;;;;;;;5092335;28;20591;-76
2021/10/05 03:51:39;;;;;;;3.73;0.90;;;;;;;;;;5074100;28;20333;-76
2021/10/05 03:54:07;;;;;;;5.00;1.10;;;;;;;;;;5071894;28;20207;-77
2021/10/05 03:56:35;;;;;;;2.60;0.90;;;;;;;;;;5071815;28;20302;-77
2021/10/05 03:59:02;;;;;;;2.97;0.80;;;;;;;;;;5072156;28;20203;-76
2021/10/05 04:01:30;;;;;;;2.83;0.87;;;;;;;;;;5070997;28;20286;-77
2021/10/05 04:03:57;;;;;;;3.90;0.90;;;;;;;;;;5072148;28;20228;-76
2021/10/05 04:06:24;;;;;;;3.00;0.90;;;;;;;;;;5072611;28;20291;-77
2021/10/05 04:08:51;;;;;;;2.40;0.90;;;;;;;;;;5071153;28;20286;-76
2021/10/05 04:11:19;;;;;;;3.00;0.77;;;;;;;;;;5071700;28;20301;-77
2021/10/05 04:13:47;;;;;;;3.27;0.83;;;;;;;;;;5071438;28;20198;-76
2021/10/05 04:16:14;;;;;;;2.40;0.80;;;;;;;;;;5071632;28;20287;-76
2021/10/05 04:18:41;;;;;;;3.00;0.87;;;;;;;;;;5074774;28;20309;-76
2021/10/05 04:21:09;;;;;;;2.27;0.60;;;;;;;;;;5090789;28;20222;-76
2021/10/05 04:23:36;;;;;;;2.37;0.43;;;;;;;;;;5079369;28;20230;-77
2021/10/05 04:26:03;;;;;;;1.20;0.60;;;;;;;;;;5083810;28;20309;-76
2021/10/05 04:28:30;;;;;;;1.93;0.50;;;;;;;;;;5080409;28;20284;-76
2021/10/05 04:30:59;;;;;;;1.33;0.57;;;;;;;;;;5090766;28;20309;-76
2021/10/05 04:33:26;;;;;;;2.00;0.47;;;;;;;;;;5088382;28;20678;-76
2021/10/05 04:35:53;;;;;;;0.90;0.40;;;;;;;;;;5084187;28;20632;-76
2021/10/05 04:38:20;;;;;;;1.60;0.50;;;;;;;;;;5081065;28;20341;-76
2021/10/05 04:40:47;;;;;;;0.97;0.40;;;;;;;;;;5075368;28;20274;-76
2021/10/05 04:43:15;;;;;;;5.63;0.37;;;;;;;;;;5087266;28;20277;-77
2021/10/05 04:45:44;;;;;;;1.60;0.20;;;;;;;;;;5090242;28;20286;-77
2021/10/05 04:48:12;;;;;;;0.23;0.10;;;;;;;;;;5078510;28;20285;-77
2021/10/05 04:50:39;;;;;;;1.07;0.10;;;;;;;;;;5095370;28;20920;-76
2021/10/05 04:53:07;;;;;;;0.60;0.00;;;;;;;;;;5092000;28;20195;-77
2021/10/05 04:55:37;;;;;;;0.97;0.10;;;;;;;;;;5095045;28;20208;-77
2021/10/05 04:58:04;;;;;;;0.40;0.10;;;;;;;;;;5084955;28;20290;-76
2021/10/05 05:00:32;;;;;;;0.70;0.10;;;;;;;;;;5090757;28;20199;-76
2021/10/05 05:02:59;;;;;;;1.63;0.20;;;;;;;;;;5074748;28;20298;-76
2021/10/05 05:05:27;;;;;;;1.33;0.20;;;;;;;;;;5075186;28;20289;-76
2021/10/05 05:07:57;;;;;;;2.23;0.40;;;;;;;;;;5081887;28;20299;-76
2021/10/05 05:10:25;;;;;;;0.47;0.23;;;;;;;;;;5088467;28;20286;-75
2021/10/05 05:12:52;;;;;;;3.63;0.77;;;;;;;;;;5082990;28;20640;-75
2021/10/05 05:15:19;;;;;;;4.30;0.50;;;;;;;;;;5092315;28;20650;-75
2021/10/05 05:17:46;;;;;;;2.77;0.40;;;;;;;;;;5092890;28;20238;-75
2021/10/05 05:20:14;;;;;;;3.93;0.43;;;;;;;;;;5091816;28;20198;-75
2021/10/05 05:22:44;;;;;;;2.63;0.50;;;;;;;;;;5086974;28;20741;-76
2021/10/05 05:25:12;;;;;;;2.13;0.53;;;;;;;;;;5075921;28;20716;-76
2021/10/05 05:27:39;;;;;;;4.30;0.60;;;;;;;;;;5088617;28;20245;-75
2021/10/05 05:30:07;;;;;;;2.70;0.77;;;;;;;;;;5088501;28;20282;-75
2021/10/05 05:32:34;;;;;;;3.40;0.63;;;;;;;;;;5078438;28;20302;-75
2021/10/05 05:35:01;;;;;;;2.73;0.60;;;;;;;;;;5074808;28;20233;-75
2021/10/05 05:37:28;;;;;;;2.23;0.43;;;;;;;;;;5082113;28;20654;-75
2021/10/05 05:39:57;;;;;;;4.17;0.73;;;;;;;;;;5081776;28;20902;-75
2021/10/05 05:42:24;;;;;;;6.67;0.87;;;;;;;;;;5079751;28;20282;-76
2021/10/05 05:44:52;;;;;;;3.23;0.53;;;;;;;;;;5079368;28;20285;-76
2021/10/05 05:47:19;;;;;;;5.13;0.80;;;;;;;;;;5080404;28;20199;-76
2021/10/05 05:49:46;;;;;;;4.93;0.70;;;;;;;;;;5082864;28;20285;-76
2021/10/05 05:52:14;;;;;;;7.00;1.07;;;;;;;;;;5088252;28;20308;-76
2021/10/05 05:54:41;;;;;;;3.20;0.80;;;;;;;;;;5093707;28;20237;-76
2021/10/05 05:57:09;;;;;;;7.10;1.00;;;;;;;;;;5080232;28;20651;-76
2021/10/05 05:59:37;;;;;;;4.27;0.93;;;;;;;;;;5087111;28;20906;-76
2021/10/05 06:02:04;;;;;;;6.27;0.70;;;;;;;;;;5094361;28;20249;-76
2021/10/05 06:04:31;;;;;;;5.27;0.80;;;;;;;;;;5094251;28;20677;-76
2021/10/05 06:06:58;;;;;;;5.20;0.80;;;;;;;;;;5078240;28;20282;-76
2021/10/05 06:09:25;;;;;;;6.63;1.10;;;;;;;;;;5073884;28;20227;-76
2021/10/05 06:12:00;;;;;;;4.43;0.93;;;;;;;;;;5073865;28;20589;-76
2021/10/05 06:14:29;;;;;;;6.17;1.03;;;;;;;;;;5073825;28;20264;-77
2021/10/05 06:16:56;;;;;;;7.63;0.90;;;;;;;;;;5073830;28;20203;-76
2021/10/05 06:19:23;;;;;;;7.13;0.93;;;;;;;;;;5073798;28;20213;-76
2021/10/05 06:21:50;;;;;;;9.63;1.17;;;;;;;;;;5073305;28;20287;-76
2021/10/05 06:24:18;;;;;;;6.00;1.80;;;;;;;;;;5073997;28;20458;-76
2021/10/05 06:26:45;;;;;;;9.20;1.10;;;;;;;;;;5079765;28;20285;-76
2021/10/05 06:29:12;;;;;;;9.87;1.13;;;;;;;;;;5094016;28;20665;-76
2021/10/05 06:31:41;;;;;;;9.33;1.30;;;;;;;;;;5090904;28;20309;-76
2021/10/05 06:34:08;;;;;;;9.40;1.50;;;;;;;;;;5091208;28;20285;-76
2021/10/05 06:36:36;;;;;;;10.70;1.20;;;;;;;;;;5073200;28;20326;-76
2021/10/05 06:39:03;;;;;;;12.53;1.30;;;;;;;;;;5081757;28;20222;-76
2021/10/05 06:41:30;;;;;;;7.47;1.20;;;;;;;;;;5093929;28;20281;-76
2021/10/05 06:43:57;;;;;;;10.90;1.40;;;;;;;;;;5093121;28;20285;-76
2021/10/05 06:46:24;;;;;;;10.93;1.80;;;;;;;;;;5093594;28;20582;-76
2021/10/05 06:48:53;;;;;;;8.50;1.53;;;;;;;;;;5092093;28;20222;-76
2021/10/05 06:51:20;;;;;;;6.00;1.03;;;;;;;;;;5073207;28;20198;-76
2021/10/05 06:53:47;;;;;;;7.17;1.20;;;;;;;;;;5073154;28;20302;-76
2021/10/05 06:56:14;;;;;;;7.40;1.17;;;;;;;;;;5073243;28;20230;-76
2021/10/05 06:58:42;;;;;;;8.03;1.63;;;;;;;;;;5072711;28;20278;-77
2021/10/05 07:01:09;;;;;;;6.57;1.30;;;;;;;;;;5072717;28;20302;-76
2021/10/05 07:03:36;;;;;;;5.83;0.90;;;;;;;;;;5071951;28;20302;-76
2021/10/05 07:06:04;;;;;;;7.13;1.20;;;;;;;;;;5072507;28;20278;-76
2021/10/05 07:08:32;;;;;;;4.47;0.80;;;;;;;;;;5072682;28;20636;-76
2021/10/05 07:10:59;;;;;;;6.10;1.10;;;;;;;;;;5072576;28;20868;-76
2021/10/05 07:13:26;;;;;;;6.40;1.23;;;;;;;;;;5072686;28;20646;-77
2021/10/05 07:15:53;;;;;;;7.63;1.40;;;;;;;;;;5072459;28;20761;-76
2021/10/05 07:18:21;;;;;;;6.43;1.52;;;;;;;;;;5071866;28;20733;-77
2021/10/05 07:20:48;;;;;;;7.07;1.42;;;;;;;;;;5092484;28;20210;-76
2021/10/05 07:23:16;;;;;;;5.28;1.02;;;;;;;;;;5092677;28;20285;-76
2021/10/05 07:25:44;;;;;;;6.47;1.30;;;;;;;;;;5092780;28;20289;-77
2021/10/05 07:28:11;;;;;;;7.65;1.27;;;;;;;;;;5092518;28;20289;-77
2021/10/05 07:30:38;;;;;;;7.90;1.48;;;;;;;;;;5092195;28;20860;-77
2021/10/05 07:33:07;;;;;;;6.05;1.10;;;;;;;;;;5082251;28;20225;-77
2021/10/05 07:35:34;;;;;;;5.03;1.20;;;;;;;;;;5084085;28;20198;-77
2021/10/05 07:38:01;;;;;;;3.70;1.17;;;;;;;;;;5092183;28;20238;-77
2021/10/05 07:40:31;;;;;;;6.60;1.38;;;;;;;;;;5090624;28;20644;-76
2021/10/05 07:43:00;;;;;;;7.38;1.50;;;;;;;;;;5092293;28;20240;-77
2021/10/05 07:45:28;;;;;;;4.28;1.13;;;;;;;;;;5092682;28;20630;-76
2021/10/05 07:47:56;;;;;;;5.82;1.20;;;;;;;;;;5091798;28;20737;-76
2021/10/05 07:50:24;;;;;;;6.68;1.35;;;;;;;;;;5074102;28;20281;-76
2021/10/05 07:52:51;;;;;;;6.40;1.40;;;;;;;;;;5071660;28;20812;-76
2021/10/05 07:55:18;;;;;;;6.88;1.70;;;;;;;;;;5087612;28;20292;-76
2021/10/05 07:57:48;;;;;;;8.40;1.75;;;;;;;;;;5082014;28;20289;-75
2021/10/05 08:00:15;;;;;;;6.18;1.17;;;;;;;;;;5086183;28;20412;-76
2021/10/05 08:02:44;;;;;;;3.75;1.30;;;;;;;;;;5091827;28;20233;-78
2021/10/05 08:05:13;;;;;;;5.20;1.25;;;;;;;;;;5083141;28;20705;-78
2021/10/05 08:07:40;;;;;;;7.25;1.50;;;;;;;;;;5091501;28;20205;-78
2021/10/05 08:10:07;;;;;;;4.95;1.77;;;;;;;;;;5090703;28;20205;-77
2021/10/05 08:12:35;;;;;;;6.53;1.58;;;;;;;;;;5091411;28;20293;-77
2021/10/05 08:15:04;;;;;;;6.30;1.23;;;;;;;;;;5089892;28;20290;-77
2021/10/05 08:17:31;;;;;;;4.25;1.42;;;;;;;;;;5091091;28;20758;-77
2021/10/05 08:19:59;;;;;;;5.32;1.40;;;;;;;;;;5091652;28;20336;-77
2021/10/05 08:22:26;;;;;;;7.28;1.33;;;;;;;;;;5091680;28;20294;-77
2021/10/05 08:24:53;;;;;;;6.20;1.45;;;;;;;;;;5090157;28;20196;-77
2021/10/05 08:27:20;;;;;;;7.40;1.33;;;;;;;;;;5077888;28;20737;-77
2021/10/05 08:29:48;;;;;;;6.35;1.35;;;;;;;;;;5080956;28;20198;-77
2021/10/05 08:32:17;;;;;;;6.28;1.30;;;;;;;;;;5091700;28;20590;-77
2021/10/05 08:34:44;;;;;;;6.95;1.13;;;;;;;;;;5091352;28;20286;-77
2021/10/05 08:37:12;;;;;;;7.20;1.30;;;;;;;;;;5085495;28;20337;-77
2021/10/05 08:39:39;;;;;;;7.88;1.33;;;;;;;;;;5083524;28;20691;-78
2021/10/05 08:42:06;;;;;;;6.15;1.27;;;;;;;;;;5086881;28;20230;-77
2021/10/05 08:44:34;;;;;;;6.43;1.30;;;;;;;;;;5090059;28;20281;-77
2021/10/05 08:47:01;;;;;;;8.38;1.63;;;;;;;;;;5089923;28;20282;-78
2021/10/05 08:49:29;;;;;;;8.52;1.35;;;;;;;;;;5081633;28;20278;-77
2021/10/05 08:51:57;;;;;;;6.25;1.70;;;;;;;;;;5091454;28;20281;-78
2021/10/05 08:54:24;;;;;;;5.93;1.33;;;;;;;;;;5089804;28;20285;-77
2021/10/05 08:56:52;;;;;;;7.65;1.35;;;;;;;;;;5090482;28;20237;-77
2021/10/05 08:59:19;;;;;;;7.93;1.40;;;;;;;;;;5074033;28;20286;-77
2021/10/05 09:01:49;;;;;;;6.82;1.40;;;;;;;;;;5091908;28;20690;-77
2021/10/05 09:04:16;;;;;;;6.88;1.35;;;;;;;;;;5090325;28;20309;-78
2021/10/05 09:06:51;;;;;;;6.32;1.50;;;;;;;;;;5089002;28;20285;-78
2021/10/05 09:09:19;;;;;;;7.78;1.20;;;;;;;;;;5072455;28;20204;-78
2021/10/05 09:11:49;;;;;;;9.18;1.27;;;;;;;;;;5075966;28;20199;-77
2021/10/05 09:14:17;;;;;;;8.40;1.50;;;;;;;;;;5071454;28;20292;-78
2021/10/05 09:16:44;;;;;;;11.93;1.63;;;;;;;;;;5086583;28;20294;-77
2021/10/05 09:19:13;;;;;;;5.68;1.50;;;;;;;;;;5087405;28;20199;-77
2021/10/05 09:21:41;;;;;;;8.32;1.52;;;;;;;;;;5084739;28;20190;-77
2021/10/05 09:24:11;;;;;;;4.55;1.33;;;;;;;;;;5090217;28;20684;-77
2021/10/05 09:26:40;;;;;;;5.57;1.05;;;;;;;;;;5084594;28;20194;-78
2021/10/05 09:29:18;;;;;;;6.45;1.35;;;;;;;;;;5079538;28;20302;-77
2021/10/05 09:31:53;;;;;;;5.55;1.50;;;;;;;;;;5078039;28;20277;-77
2021/10/05 09:34:21;;;;;;;6.30;1.73;;;;;;;;;;5093650;28;20228;-77
2021/10/05 09:36:49;;;;;;;7.65;1.33;;;;;;;;;;5094194;28;20226;-77
2021/10/05 09:39:17;;;;;;;4.50;1.30;;;;;;;;;;5088650;28;20290;-77
2021/10/05 09:41:54;;;;;;;5.45;1.30;;;;;;;;;;5090936;28;20286;-77
2021/10/05 09:44:26;;;;;;;7.65;1.42;;;;;;;;;;5093130;28;20571;-77
2021/10/05 09:46:54;;;;;;;5.45;1.30;;;;;;;;;;5088597;28;20198;-77
2021/10/05 09:49:23;;;;;;;4.53;1.10;;;;;;;;;;5091825;28;20289;-77
2021/10/05 09:51:57;;;;;;;5.43;1.13;;;;;;;;;;5092599;28;20593;-77
2021/10/05 09:54:26;;;;;;;4.85;1.00;;;;;;;;;;5080753;28;20388;-78
2021/10/05 09:56:54;;;;;;;4.85;1.27;;;;;;;;;;5093279;28;20836;-78
2021/10/05 09:59:21;;;;;;;4.35;1.08;;;;;;;;;;5080981;28;20639;-78
2021/10/05 10:01:48;;;;;;;7.28;1.35;;;;;;;;;;5087961;28;20705;-78
2021/10/05 10:04:15;;;;;;;5.40;1.25;;;;;;;;;;5091365;28;20285;-78
2021/10/05 10:06:43;;;;;;;6.72;1.40;;;;;;;;;;5076621;28;20241;-78
2021/10/05 10:09:10;;;;;;;6.45;1.33;;;;;;;;;;5088629;28;20287;-77
2021/10/05 10:11:39;;;;;;;4.40;1.02;;;;;;;;;;5079806;28;20289;-78
2021/10/05 10:14:06;;;;;;;5.25;1.00;;;;;;;;;;5080591;28;20659;-78
2021/10/05 10:16:35;;;;;;;8.70;1.30;;;;;;;;;;5090758;28;20285;-77
2021/10/05 10:19:03;;;;;;;6.90;1.10;;;;;;;;;;5074964;28;20210;-78
2021/10/05 10:21:32;;;;;;;5.85;1.23;;;;;;;;;;5075875;28;20562;-77
2021/10/05 10:24:07;;;;;;;6.38;1.10;;;;;;;;;;5075763;28;20198;-77
2021/10/05 10:26:34;;;;;;;6.63;1.27;;;;;;;;;;5077400;28;20199;-77
2021/10/05 10:29:04;;;;;;;6.85;1.10;;;;;;;;;;5091983;28;20282;-78
2021/10/05 10:31:32;;;;;;;5.75;0.90;;;;;;;;;;5086321;28;21784;-77
2021/10/05 10:33:59;;;;;;;4.40;1.10;;;;;;;;;;5076858;28;20585;-77
2021/10/05 10:36:30;;;;;;;5.85;1.10;;;;;;;;;;5085781;28;20257;-77
2021/10/05 10:39:04;;;;;;;5.82;0.90;;;;;;;;;;5083549;28;20283;-77
2021/10/05 10:41:31;;;;;;;7.35;1.20;;;;;;;;;;5086385;28;20230;-77
2021/10/05 10:44:00;;;;;;;5.85;1.10;;;;;;;;;;5075381;28;20226;-78
2021/10/05 10:46:31;;;;;;;4.10;1.10;;;;;;;;;;5084253;28;20209;-78
2021/10/05 10:48:59;;;;;;;4.97;0.95;;;;;;;;;;5082474;28;20686;-77
2021/10/05 10:51:28;;;;;;;4.53;1.10;;;;;;;;;;5089096;28;20289;-77
2021/10/05 10:53:56;;;;;;;6.47;1.10;;;;;;;;;;5083185;28;20222;-77
2021/10/05 10:56:30;;;;;;;5.80;1.30;;;;;;;;;;5083705;28;20697;-78
2021/10/05 10:58:59;;;;;;;3.45;1.05;;;;;;;;;;5088970;28;20198;-77
2021/10/05 11:01:37;;;;;;;6.45;0.98;;;;;;;;;;5073442;28;20203;-77
2021/10/05 11:04:05;;;;;;;5.30;1.20;;;;;;;;;;5083127;28;20200;-77
2021/10/05 11:06:32;;;;;;;6.65;1.23;;;;;;;;;;5078979;28;20373;-77
2021/10/05 11:09:00;;;;;;;3.20;0.82;;;;;;;;;;5089623;28;20225;-77
2021/10/05 11:11:32;;;;;;;4.53;1.02;;;;;;;;;;5083672;28;20199;-77
2021/10/05 11:14:01;;;;;;;4.20;0.93;;;;;;;;;;5080827;28;20305;-77
2021/10/05 11:16:29;;;;;;;4.35;0.95;;;;;;;;;;5093330;28;20249;-78
2021/10/05 11:19:06;;;;;;;4.65;1.08;;;;;;;;;;5090778;28;20205;-78
2021/10/05 11:21:33;;;;;;;3.60;1.02;;;;;;;;;;5072983;28;20706;-78
2021/10/05 11:24:01;;;;;;;4.82;1.00;;;;;;;;;;5072397;28;20227;-78
2021/10/05 11:26:32;;;;;;;5.15;0.90;;;;;;;;;;5084579;28;20263;-77
2021/10/05 11:29:01;;;;;;;4.18;0.80;;;;;;;;;;5079121;28;20218;-77
2021/10/05 11:40:52;;;;;;;5.68;0.70;;;;;;;;;;5085921;28;20729;-77
2021/10/05 11:43:20;;;;;;;2.67;0.50;;;;;;;;;;5091546;27;20282;-77
2021/10/05 11:45:47;;;;;;;2.80;0.70;;;;;;;;;;5081820;28;20657;-76
2021/10/05 11:48:14;;;;;;;4.07;0.50;;;;;;;;;;5087937;28;20201;-76
2021/10/05 11:50:43;;;;;;;5.28;0.55;;;;;;;;;;5082042;28;20194;-77
2021/10/05 11:53:10;;;;;;;3.38;0.68;;;;;;;;;;5079046;28;20321;-76
2021/10/05 11:55:38;;;;;;;4.63;0.50;;;;;;;;;;5074758;28;20289;-76
2021/10/05 11:58:05;;;;;;;4.30;0.80;;;;;;;;;;5083617;28;20194;-76
2021/10/05 12:00:32;;;;;;;3.78;0.55;;;;;;;;;;5081635;28;20306;-77
2021/10/05 12:03:00;;;;;;;3.30;0.55;;;;;;;;;;5079523;28;20293;-77
2021/10/05 12:05:27;;;;;;;3.03;0.60;;;;;;;;;;5080356;28;20685;-77
2021/10/05 12:07:58;;;;;;;4.78;0.77;;;;;;;;;;5079594;28;20199;-77
2021/10/05 12:10:25;;;;;;;4.75;0.50;;;;;;;;;;5079811;28;20286;-77
2021/10/05 12:12:52;;;;;;;2.45;0.68;;;;;;;;;;5079941;28;20286;-77
2021/10/05 12:15:23;;;;;;;3.38;0.70;;;;;;;;;;5080041;28;20305;-77
2021/10/05 12:18:01;;;;;;;3.58;0.77;;;;;;;;;;5081290;28;20758;-77
2021/10/05 12:20:28;;;;;;;3.65;0.60;;;;;;;;;;5082733;28;20213;-78
2021/10/05 12:22:57;;;;;;;2.10;0.50;;;;;;;;;;5078876;28;20306;-77
2021/10/05 12:25:25;;;;;;;5.95;0.73;;;;;;;;;;5074529;28;20234;-77
2021/10/05 12:27:52;;;;;;;3.53;0.80;;;;;;;;;;5080131;28;20198;-77
2021/10/05 12:30:20;;;;;;;3.17;0.63;;;;;;;;;;5077337;28;20281;-78
2021/10/05 12:32:49;;;;;;;3.15;0.60;;;;;;;;;;5090845;28;20203;-78
2021/10/05 12:35:23;;;;;;;3.35;0.60;;;;;;;;;;5077738;28;20588;-78
2021/10/05 12:37:59;;;;;;;2.85;0.50;;;;;;;;;;5070953;28;20285;-78
2021/10/05 12:40:26;;;;;;;2.72;0.75;;;;;;;;;;5071774;28;20230;-78
2021/10/05 12:42:54;;;;;;;3.37;0.50;;;;;;;;;;5071579;28;20572;-78
2021/10/05 12:45:22;;;;;;;3.13;0.70;;;;;;;;;;5072043;28;20203;-78
2021/10/05 12:47:53;;;;;;;1.87;0.50;;;;;;;;;;5071310;28;20291;-78
2021/10/05 12:50:21;;;;;;;1.50;0.60;;;;;;;;;;5083996;28;20205;-78
2021/10/05 12:52:52;;;;;;;4.03;0.60;;;;;;;;;;5070823;28;20290;-77
2021/10/05 12:55:21;;;;;;;1.93;0.43;;;;;;;;;;5084873;28;20218;-77
2021/10/05 12:57:48;;;;;;;2.57;0.43;;;;;;;;;;5089841;28;20195;-77
2021/10/05 13:00:16;;;;;;;2.93;0.43;;;;;;;;;;5076314;28;20205;-77
2021/10/05 13:02:43;;;;;;;2.67;0.40;;;;;;;;;;5091471;28;20301;-77
2021/10/05 13:05:10;;;;;;;1.77;0.50;;;;;;;;;;5083253;28;20195;-78
2021/10/05 13:07:38;;;;;;;3.10;0.57;;;;;;;;;;5079358;28;20298;-77
2021/10/05 13:10:05;;;;;;;4.50;0.63;;;;;;;;;;5089572;28;20198;-78
2021/10/05 13:12:34;;;;;;;4.20;0.80;;;;;;;;;;5082399;28;20237;-78
2021/10/05 13:15:01;;;;;;;5.57;1.15;;;;;;;;;;5080458;28;20909;-78
2021/10/05 13:17:28;;;;;;;4.80;0.98;;;;;;;;;;5089367;28;20289;-78
2021/10/05 13:19:56;;;;;;;4.78;0.90;;;;;;;;;;5091619;28;20693;-77
2021/10/05 13:22:23;;;;;;;3.17;0.82;;;;;;;;;;5075208;28;20287;-77
2021/10/05 13:24:50;;;;;;;4.22;1.33;;;;;;;;;;5079817;28;20722;-78
2021/10/05 13:27:18;;;;;;;5.90;1.10;;;;;;;;;;5091832;28;20206;-79
2021/10/05 13:29:46;;;;;;;3.53;0.77;;;;;;;;;;5081756;28;20282;-77
2021/10/05 13:32:13;;;;;;;4.55;1.38;;;;;;;;;;5083810;28;20293;-78
2021/10/05 13:34:41;;;;;;;5.10;1.10;;;;;;;;;;5088813;28;20322;-78
2021/10/05 13:37:08;;;;;;;3.55;1.20;;;;;;;;;;5077870;28;20290;-78
2021/10/05 13:39:35;;;;;;;3.13;0.85;;;;;;;;;;5088547;28;20314;-77
2021/10/05 13:42:02;;;;;;;3.85;0.90;;;;;;;;;;5083271;28;20294;-77
2021/10/05 13:44:30;;;;;;;3.63;1.08;;;;;;;;;;5089363;28;20206;-77
2021/10/05 13:46:58;;;;;;;3.83;1.60;;;;;;;;;;5094642;28;20220;-78
2021/10/05 13:49:25;;;;;;;4.25;1.65;;;;;;;;;;5093058;28;20281;-77
2021/10/05 13:51:53;;;;;;;4.87;1.43;;;;;;;;;;5091124;28;20222;-78
2021/10/05 13:54:20;;;;;;;4.43;1.17;;;;;;;;;;5073652;28;20690;-78
2021/10/05 13:56:47;;;;;;;4.17;1.37;;;;;;;;;;5082867;28;20282;-78
2021/10/05 13:59:14;;;;;;;3.30;1.03;;;;;;;;;;5082745;28;20219;-78
2021/10/05 14:01:41;;;;;;;4.72;1.00;;;;;;;;;;5080212;28;20251;-78
2021/10/05 14:04:10;;;;;;;3.95;1.10;;;;;;;;;;5090574;28;20277;-78
2021/10/05 14:06:37;;;;;;;4.57;1.13;;;;;;;;;;5077851;28;20234;-78
2021/10/05 14:09:04;;;;;;;8.18;1.30;;;;;;;;;;5087042;28;20282;-77
2021/10/05 14:11:32;;;;;;;3.35;1.05;;;;;;;;;;5085003;28;20640;-77
2021/10/05 14:13:59;;;;;;;3.83;1.20;;;;;;;;;;5077937;28;20313;-78
2021/10/05 14:16:26;;;;;;;3.67;0.93;;;;;;;;;;5078993;28;20701;-78
2021/10/05 14:18:54;;;;;;;5.47;1.10;;;;;;;;;;5079678;28;20281;-78
2021/10/05 14:21:24;;;;;;;2.83;0.90;;;;;;;;;;5093311;28;20233;-78
2021/10/05 14:23:52;;;;;;;2.22;0.98;;;;;;;;;;5093384;28;20213;-77
2021/10/05 14:26:19;;;;;;;3.25;0.82;;;;;;;;;;5093877;28;20285;-78
2021/10/05 14:28:47;;;;;;;5.72;0.90;;;;;;;;;;5093846;28;20222;-77
2021/10/05 14:31:14;;;;;;;3.42;1.02;;;;;;;;;;5088685;28;20225;-77
2021/10/05 14:33:42;;;;;;;4.57;0.90;;;;;;;;;;5073225;28;20195;-77
2021/10/05 14:36:09;;;;;;;4.18;1.10;;;;;;;;;;5073842;28;20290;-77
2021/10/05 14:38:38;;;;;;;4.40;1.10;;;;;;;;;;5073490;28;20286;-78
2021/10/05 14:41:05;;;;;;;3.70;1.13;;;;;;;;;;5073338;28;20296;-77
2021/10/05 14:43:32;;;;;;;3.60;1.00;;;;;;;;;;5075744;28;20442;-78
2021/10/05 14:45:59;;;;;;;4.40;0.80;;;;;;;;;;5093673;28;20234;-77
2021/10/05 14:48:27;;;;;;;2.77;1.10;;;;;;;;;;5091773;28;20241;-77
2021/10/05 14:50:54;;;;;;;2.53;0.70;;;;;;;;;;5076426;28;20285;-77
2021/10/05 14:53:21;;;;;;;3.27;0.90;;;;;;;;;;5073862;28;20229;-77